Time;durP1;ratioP1;P1;durP2;ratioP2;P2;SDS_P1;SDS_P2;PMS_P1;PMS_P2;Temp;Humidity;BMP_temperature;BMP_pressure;BME280_temperature;BME280_humidity;BME280_pressure;Samples;Min_cycle;Max_cycle;Signal;HPM_P1;HPM_P2
2022/01/04 00:00:39;;;;;;;1999.90;999.90;;;12.90;99.90;;;;;;5153361;27;20053;-85
2022/01/04 00:03:06;;;;;;;1659.72;908.40;;;10.40;99.90;;;;;;5134158;27;20629;-87
2022/01/04 00:05:32;;;;;;;1999.90;999.90;;;10.50;99.90;;;;;;5153271;27;20367;-85
2022/01/04 00:07:59;;;;;;;1139.18;967.97;;;10.30;99.90;;;;;;5151592;27;20046;-86
2022/01/04 00:10:26;;;;;;;1383.55;973.83;;;11.30;99.90;;;;;;5134043;27;20475;-85
2022/01/04 00:15:39;;;;;;;1038.53;930.63;;;10.30;99.90;;;;;;5152951;27;20086;-85
2022/01/04 00:18:05;;;;;;;1099.82;960.75;;;9.90;99.90;;;;;;5134496;27;20157;-85
2022/01/04 00:20:31;;;;;;;1022.30;915.92;;;11.90;99.90;;;;;;5153104;27;20498;-84
2022/01/04 00:22:57;;;;;;;1007.83;881.17;;;10.10;99.90;;;;;;5133629;27;20043;-84
2022/01/04 00:25:22;;;;;;;1018.95;918.63;;;10.30;99.90;;;;;;5152755;27;20043;-84
2022/01/04 00:27:48;;;;;;;974.53;878.25;;;10.90;99.90;;;;;;5152633;27;20046;-84
2022/01/04 00:30:14;;;;;;;998.58;898.40;;;12.60;99.90;;;;;;5152987;27;20043;-84
2022/01/04 00:32:39;;;;;;;1012.00;910.28;;;10.50;99.90;;;;;;5152667;27;20039;-84
2022/01/04 00:35:05;;;;;;;1001.90;895.50;;;10.50;99.90;;;;;;5152449;27;20103;-85
2022/01/04 00:37:31;;;;;;;933.40;838.67;;;10.50;99.90;;;;;;5151951;27;20398;-84
2022/01/04 00:39:58;;;;;;;939.78;850.10;;;10.70;99.90;;;;;;5152061;27;20042;-84
2022/01/04 00:42:23;;;;;;;980.35;884.42;;;9.90;99.90;;;;;;5152621;27;20093;-83
2022/01/04 00:44:49;;;;;;;967.28;874.78;;;10.00;99.90;;;;;;5134102;27;20432;-88
2022/01/04 00:47:15;;;;;;;924.05;827.60;;;12.70;99.90;;;;;;5153322;27;20482;-84
2022/01/04 00:49:42;;;;;;;1999.90;999.90;;;10.30;99.90;;;;;;5152985;27;20050;-83
2022/01/04 00:52:12;;;;;;;1999.90;999.90;;;10.60;99.90;;;;;;5152163;27;20042;-83
2022/01/04 00:54:38;;;;;;;1881.75;999.90;;;9.90;99.90;;;;;;5152558;27;20051;-83
2022/01/04 00:57:04;;;;;;;995.20;898.38;;;10.40;99.90;;;;;;5152657;27;20050;-83
2022/01/04 00:59:30;;;;;;;1999.90;999.90;;;10.50;99.90;;;;;;5152397;27;20035;-83
2022/01/04 01:01:55;;;;;;;1999.90;999.90;;;9.60;99.90;;;;;;5151705;27;20046;-82
2022/01/04 01:04:22;;;;;;;1419.57;999.90;;;10.50;99.90;;;;;;5152760;27;20038;-81
2022/01/04 01:06:48;;;;;;;1911.63;999.90;;;10.30;99.90;;;;;;5151885;27;20145;-82
2022/01/04 01:09:13;;;;;;;1020.10;916.20;;;11.60;99.90;;;;;;5151492;27;20070;-81
2022/01/04 01:11:39;;;;;;;1015.60;911.20;;;10.50;99.90;;;;;;5133528;27;20038;-82
2022/01/04 01:14:05;;;;;;;1106.00;959.13;;;10.00;99.90;;;;;;5151923;27;20043;-81
2022/01/04 01:16:32;;;;;;;1055.05;909.80;;;10.60;99.90;;;;;;5135774;27;20399;-81
2022/01/04 01:18:58;;;;;;;1028.55;907.17;;;10.60;99.90;;;;;;5132133;27;20119;-81
2022/01/04 01:21:23;;;;;;;1342.50;999.90;;;11.00;99.90;;;;;;5135756;27;20043;-80
2022/01/04 01:23:49;;;;;;;1404.22;965.28;;;10.60;99.90;;;;;;5134780;27;20082;-80
2022/01/04 01:26:15;;;;;;;877.92;794.97;;;10.60;99.90;;;;;;5135008;27;20050;-80
2022/01/04 01:28:41;;;;;;;1907.13;998.22;;;10.60;99.90;;;;;;5142573;27;20042;-80
2022/01/04 01:31:07;;;;;;;870.50;789.55;;;9.70;99.90;;;;;;5155609;27;20051;-80
2022/01/04 01:33:34;;;;;;;1999.90;999.90;;;10.20;99.90;;;;;;5155766;27;20490;-80
2022/01/04 01:35:59;;;;;;;885.45;798.00;;;11.50;99.90;;;;;;5155701;27;20162;-79
2022/01/04 01:38:25;;;;;;;1999.90;999.90;;;9.80;99.90;;;;;;5155385;27;20498;-79
2022/01/04 01:40:52;;;;;;;1024.80;874.55;;;9.90;99.90;;;;;;5155469;27;20054;-79
2022/01/04 01:43:18;;;;;;;1999.90;999.90;;;9.90;99.90;;;;;;5155369;27;20043;-80
2022/01/04 01:45:45;;;;;;;959.40;853.58;;;10.20;99.90;;;;;;5155424;27;20050;-79
2022/01/04 01:48:12;;;;;;;1059.20;890.58;;;10.00;99.90;;;;;;5150111;27;20051;-79
2022/01/04 01:50:38;;;;;;;898.95;810.65;;;10.50;99.90;;;;;;5135029;27;20039;-79
2022/01/04 01:53:03;;;;;;;1617.60;950.25;;;9.80;99.90;;;;;;5134148;27;20375;-80
2022/01/04 01:55:29;;;;;;;904.88;820.17;;;10.50;99.90;;;;;;5136125;27;20043;-79
2022/01/04 01:57:55;;;;;;;875.97;798.15;;;9.70;99.90;;;;;;5155788;27;20129;-79
2022/01/04 02:00:23;;;;;;;977.72;876.28;;;9.80;99.90;;;;;;5155420;27;20078;-78
2022/01/04 02:02:49;;;;;;;1999.90;999.90;;;9.70;99.90;;;;;;5155664;27;20046;-79
2022/01/04 02:05:15;;;;;;;881.80;798.60;;;10.10;99.90;;;;;;5136553;27;20055;-78
2022/01/04 02:07:42;;;;;;;968.20;875.33;;;10.20;99.90;;;;;;5155072;27;20054;-79
2022/01/04 02:10:09;;;;;;;877.00;794.83;;;10.00;99.90;;;;;;5154700;27;20038;-79
2022/01/04 02:12:54;;;;;;;848.15;772.50;;;9.90;99.90;;;;;;5155846;27;20080;-81
2022/01/04 02:15:23;;;;;;;1998.18;999.90;;;10.30;99.90;;;;;;5155015;27;20414;-79
2022/01/04 02:17:49;;;;;;;900.88;818.90;;;10.50;99.90;;;;;;5155474;27;20389;-79
2022/01/04 02:20:16;;;;;;;882.60;794.08;;;10.40;99.90;;;;;;5154936;27;20191;-79
2022/01/04 02:22:42;;;;;;;1191.28;929.58;;;11.90;99.90;;;;;;5154811;27;20402;-79
2022/01/04 02:25:09;;;;;;;1179.68;984.53;;;10.40;99.90;;;;;;5154435;27;20092;-79
2022/01/04 02:27:36;;;;;;;958.35;867.92;;;9.90;99.90;;;;;;5155270;27;20083;-79
2022/01/04 02:30:07;;;;;;;986.85;874.33;;;10.20;99.90;;;;;;5154218;27;20054;-80
2022/01/04 02:32:33;;;;;;;1447.55;940.92;;;9.90;99.90;;;;;;5154505;27;20050;-80
2022/01/04 02:34:58;;;;;;;1326.95;972.95;;;10.40;99.90;;;;;;5155329;27;20047;-79
2022/01/04 02:37:26;;;;;;;1999.90;934.85;;;9.90;99.90;;;;;;5154219;27;20039;-79
2022/01/04 02:39:53;;;;;;;872.88;791.75;;;11.20;99.90;;;;;;5154675;27;20170;-79
2022/01/04 02:42:19;;;;;;;1339.60;776.87;;;9.10;99.90;;;;;;5154270;27;20034;-79
2022/01/04 02:44:45;;;;;;;1994.50;947.30;;;10.80;99.90;;;;;;5154917;27;20035;-79
2022/01/04 02:47:12;;;;;;;870.33;788.63;;;11.70;99.90;;;;;;5154569;27;20111;-79
2022/01/04 02:49:38;;;;;;;1006.30;907.47;;;10.30;99.90;;;;;;5154871;27;20129;-79
2022/01/04 02:52:04;;;;;;;880.30;797.47;;;10.30;99.90;;;;;;5135043;27;20130;-79
2022/01/04 02:54:30;;;;;;;827.17;755.50;;;9.70;99.90;;;;;;5154351;27;20082;-79
2022/01/04 02:56:55;;;;;;;754.67;683.90;;;9.80;99.90;;;;;;5154350;27;20085;-79
2022/01/04 02:59:21;;;;;;;991.38;888.42;;;10.30;99.90;;;;;;5154153;27;20096;-78
2022/01/04 03:01:47;;;;;;;756.05;691.22;;;10.10;99.90;;;;;;5154524;27;20054;-79
2022/01/04 03:04:12;;;;;;;849.25;772.13;;;9.80;99.90;;;;;;5153945;27;20039;-79
2022/01/04 03:06:38;;;;;;;828.08;753.88;;;9.80;99.90;;;;;;5154404;27;20429;-80
2022/01/04 03:09:05;;;;;;;1999.90;999.90;;;10.20;99.90;;;;;;5135106;27;20061;-83
2022/01/04 03:11:32;;;;;;;783.95;708.58;;;10.40;99.90;;;;;;5154335;27;20061;-79
2022/01/04 03:13:58;;;;;;;717.92;657.47;;;10.80;99.90;;;;;;5153666;27;20125;-79
2022/01/04 03:16:23;;;;;;;879.40;785.20;;;9.80;99.90;;;;;;5138578;27;20443;-79
2022/01/04 03:19:03;;;;;;;755.03;673.30;;;9.90;99.90;;;;;;5133441;27;20096;-79
2022/01/04 03:21:49;;;;;;;624.30;566.88;;;9.90;99.90;;;;;;5116715;27;20051;-79
2022/01/04 03:24:16;;;;;;;1999.90;999.90;;;12.50;99.90;;;;;;5132111;27;20055;-79
2022/01/04 03:26:42;;;;;;;674.30;614.70;;;10.10;99.90;;;;;;5133142;27;20055;-80
2022/01/04 03:29:10;;;;;;;993.95;747.58;;;10.10;99.90;;;;;;5136395;27;20095;-80
2022/01/04 03:31:35;;;;;;;611.20;557.55;;;11.20;99.90;;;;;;5153710;27;20038;-80
2022/01/04 03:34:02;;;;;;;545.05;500.83;;;11.60;99.90;;;;;;5154282;27;20463;-80
2022/01/04 03:36:28;;;;;;;651.40;600.25;;;11.70;99.90;;;;;;5153644;27;20123;-81
2022/01/04 03:38:56;;;;;;;802.22;720.45;;;11.50;99.90;;;;;;5152877;27;20618;-80
2022/01/04 03:41:24;;;;;;;765.17;701.28;;;10.90;99.90;;;;;;5153563;27;20129;-80
2022/01/04 03:43:51;;;;;;;701.30;636.30;;;10.00;99.90;;;;;;5153453;27;20077;-80
2022/01/04 03:46:17;;;;;;;731.95;671.47;;;10.40;99.90;;;;;;5153807;27;20512;-80
2022/01/04 03:48:43;;;;;;;815.97;736.47;;;11.50;99.90;;;;;;5153381;27;20180;-80
2022/01/04 03:51:09;;;;;;;1000.60;822.03;;;10.30;99.90;;;;;;5134751;27;20121;-80
2022/01/04 03:53:35;;;;;;;874.08;791.63;;;10.40;99.90;;;;;;5152938;27;20074;-81
2022/01/04 03:56:02;;;;;;;738.53;632.17;;;;;;;;;;5153278;27;20050;-79
2022/01/04 03:58:27;;;;;;;980.25;879.08;;;10.10;99.90;;;;;;5153366;27;20450;-79
2022/01/04 04:00:53;;;;;;;729.58;669.88;;;10.70;99.90;;;;;;5134967;27;20134;-80
2022/01/04 04:03:19;;;;;;;868.83;787.90;;;10.40;99.90;;;;;;5152792;27;20126;-80
2022/01/04 04:05:45;;;;;;;1999.90;999.90;;;9.90;99.90;;;;;;5136888;27;20058;-80
2022/01/04 04:08:11;;;;;;;878.20;787.15;;;10.50;99.90;;;;;;5131711;27;20050;-80
2022/01/04 04:10:37;;;;;;;1137.47;778.42;;;10.20;99.90;;;;;;5131937;27;20039;-80
2022/01/04 04:13:03;;;;;;;893.33;808.00;;;11.90;99.90;;;;;;5132305;27;20403;-78
2022/01/04 04:15:29;;;;;;;944.33;849.13;;;10.00;99.90;;;;;;5132131;27;20099;-79
2022/01/04 04:17:55;;;;;;;786.13;713.13;;;10.00;99.90;;;;;;5132226;27;20488;-79
2022/01/04 04:20:21;;;;;;;843.95;772.08;;;10.10;99.90;;;;;;5113715;27;20054;-79
2022/01/04 04:22:47;;;;;;;1999.90;999.90;;;10.20;99.90;;;;;;5132233;27;20090;-80
2022/01/04 04:25:14;;;;;;;1999.90;984.63;;;10.40;99.90;;;;;;5131595;27;20038;-80
2022/01/04 04:27:40;;;;;;;1071.70;774.38;;;10.80;99.90;;;;;;5132334;27;20395;-80
2022/01/04 04:30:07;;;;;;;1575.10;919.97;;;10.20;99.90;;;;;;5132214;27;20168;-79
2022/01/04 04:32:33;;;;;;;1578.00;912.60;;;10.30;99.90;;;;;;5131467;27;20057;-82
2022/01/04 04:34:58;;;;;;;1999.90;940.45;;;10.90;99.90;;;;;;5130991;27;20491;-80
2022/01/04 04:37:24;;;;;;;780.40;715.95;;;10.40;99.90;;;;;;5131319;27;20051;-80
2022/01/04 04:39:50;;;;;;;852.63;772.08;;;10.50;99.90;;;;;;5131792;27;20078;-80
2022/01/04 04:42:16;;;;;;;802.50;734.83;;;9.90;99.90;;;;;;5132006;27;20083;-80
2022/01/04 04:44:43;;;;;;;857.53;782.13;;;9.90;99.90;;;;;;5131788;27;20043;-80
2022/01/04 04:47:09;;;;;;;699.60;643.42;;;10.20;99.90;;;;;;5132114;27;20043;-81
2022/01/04 04:49:35;;;;;;;729.65;667.08;;;10.30;99.90;;;;;;5131741;27;20047;-80
2022/01/04 04:52:00;;;;;;;922.03;828.38;;;10.50;99.90;;;;;;5131612;27;20054;-80
2022/01/04 04:54:27;;;;;;;717.40;661.10;;;10.30;99.90;;;;;;5130538;27;20071;-80
2022/01/04 04:56:52;;;;;;;1183.32;838.70;;;10.10;99.90;;;;;;5126777;27;20102;-77
2022/01/04 04:59:18;;;;;;;985.67;874.05;;;10.30;99.90;;;;;;5152268;27;20042;-77
2022/01/04 05:01:44;;;;;;;1999.90;997.17;;;10.30;99.90;;;;;;5152357;27;20039;-77
2022/01/04 05:04:10;;;;;;;1311.07;914.28;;;10.70;99.90;;;;;;5152441;27;20397;-77
2022/01/04 05:06:35;;;;;;;712.50;653.88;;;9.90;99.90;;;;;;5151813;27;20155;-77
2022/01/04 05:09:02;;;;;;;760.95;699.17;;;11.30;99.90;;;;;;5151302;27;20046;-77
2022/01/04 05:11:27;;;;;;;862.90;780.05;;;10.30;99.90;;;;;;5151933;27;20096;-80
2022/01/04 05:13:53;;;;;;;673.95;613.47;;;9.80;99.90;;;;;;5152381;27;20051;-80
2022/01/04 05:16:19;;;;;;;1505.18;801.85;;;10.10;99.90;;;;;;5152104;27;20043;-80
2022/01/04 05:18:44;;;;;;;705.55;643.00;;;11.60;99.90;;;;;;5152366;27;20042;-80
2022/01/04 05:21:10;;;;;;;725.60;665.97;;;9.90;99.90;;;;;;5152662;27;20054;-80
2022/01/04 05:23:36;;;;;;;1089.35;854.65;;;9.80;99.90;;;;;;5132693;27;20393;-81
2022/01/04 05:26:02;;;;;;;1581.70;999.10;;;10.20;99.90;;;;;;5152232;27;20059;-78
2022/01/04 05:28:28;;;;;;;896.67;819.53;;;10.30;99.90;;;;;;5134975;27;20046;-79
2022/01/04 05:30:53;;;;;;;812.03;733.58;;;10.30;99.90;;;;;;5146439;27;20363;-80
2022/01/04 05:33:19;;;;;;;785.33;717.08;;;10.20;99.90;;;;;;5151719;27;20501;-80
2022/01/04 05:35:47;;;;;;;708.53;653.22;;;9.80;99.90;;;;;;5152066;27;20125;-80
2022/01/04 05:38:13;;;;;;;952.88;866.58;;;10.30;99.90;;;;;;5151704;27;20094;-79
2022/01/04 05:40:39;;;;;;;1999.90;999.90;;;10.10;99.90;;;;;;5132851;27;20410;-80
2022/01/04 05:43:05;;;;;;;905.13;818.88;;;10.30;99.90;;;;;;5152017;27;20154;-79
2022/01/04 05:45:31;;;;;;;799.25;722.30;;;9.70;99.90;;;;;;5133033;27;20140;-80
2022/01/04 05:47:57;;;;;;;744.45;681.30;;;10.30;99.90;;;;;;5152172;27;20042;-80
2022/01/04 05:50:23;;;;;;;1917.40;974.78;;;11.10;99.90;;;;;;5151511;27;20095;-80
2022/01/04 05:52:48;;;;;;;1968.97;999.90;;;9.90;99.90;;;;;;5151757;27;20427;-79
2022/01/04 05:55:14;;;;;;;1007.53;884.97;;;;;;;;;;5151446;27;20047;-80
2022/01/04 05:57:40;;;;;;;892.40;809.08;;;8.20;99.90;;;;;;5151463;27;20081;-80
2022/01/04 06:00:08;;;;;;;1360.28;944.20;;;10.00;99.90;;;;;;5152098;27;20058;-80
2022/01/04 06:02:33;;;;;;;1615.72;998.45;;;9.90;99.90;;;;;;5151697;27;20125;-80
2022/01/04 06:04:59;;;;;;;1079.18;877.20;;;11.30;99.90;;;;;;5124085;28;20131;-81
2022/01/04 06:07:25;;;;;;;1999.90;918.55;;;10.10;99.90;;;;;;5133474;27;20134;-82
2022/01/04 06:09:53;;;;;;;941.92;852.30;;;10.00;99.90;;;;;;5116373;27;20059;-81
2022/01/04 06:15:02;;;;;;;1040.85;687.20;;;9.90;99.90;;;;;;5134779;27;20003;-81
2022/01/04 06:17:38;;;;;;;1051.00;945.30;;;10.10;99.90;;;;;;5134571;27;20049;-81
2022/01/04 06:20:06;;;;;;;791.30;723.38;;;10.10;99.90;;;;;;5134751;27;20075;-81
2022/01/04 06:22:32;;;;;;;;;;;9.90;99.90;;;;;;5134496;27;20047;-80
2022/01/04 06:24:58;;;;;;;766.40;686.55;;;10.40;99.90;;;;;;5134277;27;19923;-81
2022/01/04 06:27:24;;;;;;;1829.95;909.70;;;;;;;;;;5134540;27;20514;-81
2022/01/04 06:29:50;;;;;;;536.28;493.15;;;10.20;99.90;;;;;;5134153;27;20464;-82
2022/01/04 06:32:16;;;;;;;761.45;696.90;;;10.00;99.90;;;;;;5133146;27;20047;-81
2022/01/04 06:34:44;;;;;;;1999.90;999.90;;;9.90;99.90;;;;;;5134035;27;20058;-81
2022/01/04 06:37:11;;;;;;;834.25;759.35;;;10.50;99.90;;;;;;5134100;27;20047;-81
2022/01/04 06:39:37;;;;;;;1999.90;978.13;;;10.60;99.90;;;;;;5133793;27;20074;-82
2022/01/04 06:42:03;;;;;;;902.80;814.70;;;9.90;99.90;;;;;;5134035;27;20479;-82
2022/01/04 06:44:30;;;;;;;887.10;808.72;;;10.00;99.90;;;;;;5133926;27;20058;-81
2022/01/04 06:46:56;;;;;;;857.45;778.00;;;10.10;99.90;;;;;;5115884;27;20039;-81
2022/01/04 06:49:22;;;;;;;1999.90;993.25;;;10.10;99.90;;;;;;5134169;27;20125;-82
2022/01/04 06:51:48;;;;;;;951.33;858.30;;;10.10;99.90;;;;;;5132932;27;20122;-82
2022/01/04 06:54:16;;;;;;;1198.50;957.95;;;12.00;99.90;;;;;;5133519;27;20150;-81
2022/01/04 06:56:42;;;;;;;;;;;10.00;99.90;;;;;;5146350;27;20506;-82
2022/01/04 06:59:09;;;;;;;724.25;664.33;;;10.90;99.90;;;;;;5154508;27;20324;-80
2022/01/04 07:01:36;;;;;;;913.47;816.53;;;9.90;99.90;;;;;;5154332;27;20474;-81
2022/01/04 07:04:02;;;;;;;853.90;777.42;;;11.40;99.90;;;;;;5136049;27;20049;-81
2022/01/04 07:06:28;;;;;;;736.78;678.10;;;9.90;99.90;;;;;;5154696;27;20046;-85
2022/01/04 07:08:54;;;;;;;1743.32;788.53;;;9.90;99.90;;;;;;5153691;27;20091;-82
2022/01/04 07:11:19;;;;;;;1999.90;973.47;;;10.00;99.90;;;;;;5154837;27;20051;-82
2022/01/04 07:13:45;;;;;;;588.00;537.75;;;10.30;99.90;;;;;;5154650;27;20479;-82
2022/01/04 07:16:11;;;;;;;682.70;624.97;;;11.90;99.90;;;;;;5136239;27;20063;-82
2022/01/04 07:18:38;;;;;;;546.83;505.02;;;9.70;99.90;;;;;;5154315;27;20057;-83
2022/01/04 07:21:04;;;;;;;726.80;652.50;;;9.70;99.90;;;;;;5154850;27;20046;-82
2022/01/04 07:23:30;;;;;;;671.00;611.65;;;9.70;99.90;;;;;;5154313;27;20053;-83
2022/01/04 07:25:56;;;;;;;712.42;649.50;;;9.80;99.90;;;;;;5154156;27;20047;-83
2022/01/04 07:28:23;;;;;;;1135.30;683.90;;;9.80;99.90;;;;;;5119845;27;20147;-83
2022/01/04 07:30:49;;;;;;;600.78;553.35;;;9.80;99.90;;;;;;5139909;27;20184;-82
2022/01/04 07:33:16;;;;;;;1312.82;830.33;;;10.70;99.90;;;;;;5154256;27;20447;-82
2022/01/04 07:35:43;;;;;;;591.10;544.72;;;11.70;99.90;;;;;;5135382;27;20343;-82
2022/01/04 07:38:09;;;;;;;747.20;681.92;;;11.30;99.90;;;;;;5153651;27;20138;-83
2022/01/04 07:40:35;;;;;;;656.78;606.75;;;9.80;99.90;;;;;;5153152;27;20470;-82
2022/01/04 07:43:00;;;;;;;1338.53;860.42;;;9.90;99.90;;;;;;5154123;27;20061;-82
2022/01/04 07:45:31;;;;;;;1999.90;999.90;;;11.50;99.90;;;;;;5154256;27;20443;-83
2022/01/04 07:47:57;;;;;;;936.13;783.60;;;10.30;99.90;;;;;;5153223;27;20360;-82
2022/01/04 07:50:24;;;;;;;1999.90;995.38;;;9.80;99.90;;;;;;5153977;27;20069;-83
2022/01/04 07:52:50;;;;;;;639.13;586.88;;;9.90;99.90;;;;;;5134995;27;20046;-82
2022/01/04 07:55:16;;;;;;;1999.90;999.90;;;10.00;99.90;;;;;;5153169;27;20133;-82
2022/01/04 07:57:44;;;;;;;692.42;636.47;;;10.00;99.90;;;;;;5134865;27;20042;-81
2022/01/04 08:00:10;;;;;;;;;;;9.80;99.90;;;;;;5153823;27;20086;-82
2022/01/04 08:02:38;;;;;;;681.90;609.28;;;9.90;99.90;;;;;;5134882;27;19919;-82
2022/01/04 08:05:04;;;;;;;1069.45;829.92;;;10.80;99.90;;;;;;5143248;27;20107;-82
2022/01/04 08:07:30;;;;;;;754.05;689.63;;;9.80;99.90;;;;;;5132302;27;20043;-81
2022/01/04 08:09:56;;;;;;;670.33;617.42;;;11.30;99.90;;;;;;5131841;27;20098;-82
2022/01/04 08:12:22;;;;;;;639.40;583.17;;;9.90;99.90;;;;;;5132653;27;20062;-82
2022/01/04 08:14:48;;;;;;;930.65;843.30;;;;;;;;;;5132091;27;20058;-82
2022/01/04 08:17:15;;;;;;;642.58;589.42;;;9.80;99.90;;;;;;5114073;27;20057;-81
2022/01/04 08:19:40;;;;;;;1804.97;765.85;;;7.50;99.90;;;;;;5113805;27;20059;-83
2022/01/04 08:22:06;;;;;;;606.78;557.83;;;10.00;99.90;;;;;;5131793;27;20035;-82
2022/01/04 08:24:32;;;;;;;443.55;410.50;;;11.00;99.90;;;;;;5132028;27;20100;-82
2022/01/04 08:26:58;;;;;;;355.85;329.05;;;;;;;;;;5113496;27;20138;-81
2022/01/04 08:29:24;;;;;;;297.73;276.10;;;9.40;99.90;;;;;;5112841;27;20564;-81
2022/01/04 08:31:50;;;;;;;313.88;290.83;;;9.40;99.90;;;;;;5131786;27;20406;-82
2022/01/04 08:34:16;;;;;;;470.35;429.73;;;9.20;99.90;;;;;;5132259;27;20150;-82
2022/01/04 08:36:42;;;;;;;414.55;383.20;;;9.00;99.90;;;;;;5131385;27;20043;-82
2022/01/04 08:39:14;;;;;;;316.30;293.50;;;10.20;99.90;;;;;;5131727;27;20050;-81
2022/01/04 08:41:41;;;;;;;304.17;282.10;;;9.70;99.90;;;;;;5132147;27;20041;-79
2022/01/04 08:44:08;;;;;;;274.08;255.63;;;9.10;99.90;;;;;;5113796;27;20065;-80
2022/01/04 08:46:35;;;;;;;272.08;253.32;;;11.00;99.90;;;;;;5132244;27;20039;-81
2022/01/04 08:49:07;;;;;;;275.20;255.68;;;8.90;99.90;;;;;;5132271;27;20061;-81
2022/01/04 08:51:34;;;;;;;323.75;300.35;;;9.00;99.90;;;;;;5113801;28;20047;-81
2022/01/04 08:53:59;;;;;;;226.55;210.63;;;9.00;99.90;;;;;;5130838;27;20047;-79
2022/01/04 08:56:26;;;;;;;598.53;541.03;;;9.90;99.90;;;;;;5141778;27;20046;-79
2022/01/04 08:58:53;;;;;;;422.60;391.17;;;9.80;99.90;;;;;;5152268;27;20122;-79
2022/01/04 09:01:18;;;;;;;386.80;358.10;;;9.90;99.90;;;;;;5152634;27;20077;-79
2022/01/04 09:03:44;;;;;;;358.50;332.48;;;9.00;99.90;;;;;;5152218;27;20185;-81
2022/01/04 09:06:13;;;;;;;425.95;395.05;;;10.90;99.90;;;;;;5133797;27;20054;-79
2022/01/04 09:08:38;;;;;;;467.52;434.15;;;9.60;99.90;;;;;;5151261;27;20043;-81
2022/01/04 09:11:05;;;;;;;798.50;715.33;;;9.60;99.90;;;;;;5152507;27;20038;-79
2022/01/04 09:13:36;;;;;;;422.95;393.00;;;10.90;99.90;;;;;;5152292;27;20155;-80
2022/01/04 09:18:48;;;;;;;397.17;368.45;;;10.10;99.90;;;;;;5152249;27;20083;-79
2022/01/04 09:21:21;;;;;;;378.92;350.42;;;9.10;99.90;;;;;;5137194;27;20043;-79
2022/01/04 09:23:49;;;;;;;383.90;355.58;;;11.40;99.90;;;;;;5151190;27;20111;-80
2022/01/04 09:26:17;;;;;;;395.98;367.40;;;9.20;99.90;;;;;;5152529;27;20168;-79
2022/01/04 09:28:43;;;;;;;393.85;364.75;;;9.40;99.90;;;;;;5114615;28;20057;-79
2022/01/04 09:31:10;;;;;;;397.90;369.33;;;11.90;99.90;;;;;;5135041;27;20075;-79
2022/01/04 09:33:36;;;;;;;399.25;369.02;;;10.20;99.90;;;;;;5151581;27;20035;-79
2022/01/04 09:36:03;;;;;;;369.83;343.15;;;10.10;99.90;;;;;;5116161;27;20053;-81
2022/01/04 09:38:29;;;;;;;351.13;325.08;;;9.50;99.90;;;;;;5151700;27;20047;-80
2022/01/04 09:40:55;;;;;;;362.35;330.08;;;10.00;99.90;;;;;;5154183;27;20118;-80
2022/01/04 09:43:22;;;;;;;322.95;298.73;;;9.70;99.90;;;;;;5156008;27;20085;-79
2022/01/04 09:45:49;;;;;;;220.40;205.10;;;10.10;99.90;;;;;;5155792;27;20054;-80
2022/01/04 09:48:14;;;;;;;365.33;339.98;;;9.90;99.90;;;;;;5156216;27;20098;-79
2022/01/04 09:50:42;;;;;;;355.92;331.02;;;10.40;99.90;;;;;;5156044;27;20404;-79
2022/01/04 09:53:09;;;;;;;219.00;203.90;;;10.60;99.90;;;;;;5155483;27;20111;-79
2022/01/04 09:55:41;;;;;;;224.07;209.13;;;9.80;99.90;;;;;;5155467;27;20276;-80
2022/01/04 09:58:06;;;;;;;293.95;274.38;;;10.80;99.90;;;;;;5155942;27;20138;-79
2022/01/04 10:00:32;;;;;;;238.48;222.63;;;11.20;99.90;;;;;;5155708;27;20126;-80
2022/01/04 10:03:28;;;;;;;279.95;260.73;;;9.30;99.90;;;;;;5155386;27;20142;-79
2022/01/04 10:06:20;;;;;;;543.60;364.13;;;9.50;99.90;;;;;;5138187;27;20510;-80
2022/01/04 10:09:10;;;;;;;164.07;151.38;;;9.60;99.90;;;;;;5130829;27;20568;-82
2022/01/04 10:11:47;;;;;;;145.55;135.88;;;9.50;99.90;;;;;;5134900;27;20354;-82
2022/01/04 10:14:24;;;;;;;139.88;129.93;;;9.30;99.90;;;;;;5134802;27;20047;-79
2022/01/04 10:16:56;;;;;;;117.13;109.35;;;9.30;99.90;;;;;;5134119;27;20126;-80
2022/01/04 10:19:37;;;;;;;117.70;106.13;;;9.20;99.90;;;;;;5133915;27;20051;-79
2022/01/04 10:22:23;;;;;;;145.70;135.05;;;8.90;99.90;;;;;;5133886;27;20073;-79
2022/01/04 10:25:01;;;;;;;107.95;100.90;;;11.10;99.90;;;;;;5134021;27;20079;-79
2022/01/04 10:27:41;;;;;;;112.80;105.20;;;10.20;99.90;;;;;;5134699;27;20047;-79
2022/01/04 10:30:11;;;;;;;82.03;76.50;;;11.20;99.90;;;;;;5134336;27;20058;-80
2022/01/04 10:32:50;;;;;;;117.13;109.43;;;8.80;99.90;;;;;;5134331;27;20042;-79
2022/01/04 10:35:46;;;;;;;98.82;91.65;;;9.20;99.90;;;;;;5134549;27;20051;-80
2022/01/04 10:38:19;;;;;;;97.93;91.30;;;8.90;99.90;;;;;;5133960;27;20154;-80
2022/01/04 10:40:48;;;;;;;101.43;93.95;;;8.80;99.90;;;;;;5133548;27;20380;-84
2022/01/04 10:43:20;;;;;;;81.57;75.72;;;9.40;99.90;;;;;;5134321;27;20408;-79
2022/01/04 10:45:47;;;;;;;168.30;148.23;;;9.00;99.90;;;;;;5115463;27;20074;-80
2022/01/04 10:48:27;;;;;;;253.38;231.90;;;9.40;99.90;;;;;;5134365;27;20450;-79
2022/01/04 10:51:05;;;;;;;104.68;97.72;;;9.10;99.90;;;;;;5133660;27;20039;-79
2022/01/04 10:53:46;;;;;;;129.63;119.93;;;8.80;99.90;;;;;;5133535;27;20195;-81
2022/01/04 10:56:17;;;;;;;138.13;128.90;;;9.90;99.90;;;;;;5142010;27;20047;-80
2022/01/04 10:58:48;;;;;;;138.85;129.98;;;9.00;99.90;;;;;;5154791;27;20049;-80
2022/01/04 11:01:19;;;;;;;80.55;75.40;;;8.70;99.90;;;;;;5154935;27;20043;-78
2022/01/04 11:03:51;;;;;;;194.85;97.32;;;8.80;99.90;;;;;;5154745;27;20046;-79
2022/01/04 11:06:28;;;;;;;144.98;114.30;;;8.50;99.90;;;;;;5154733;27;20047;-79
2022/01/04 11:08:54;;;;;;;131.25;121.22;;;8.60;99.90;;;;;;5153403;27;20057;-79
2022/01/04 11:11:19;;;;;;;56.20;52.40;;;10.10;99.90;;;;;;5154474;27;20038;-79
2022/01/04 11:13:48;;;;;;;67.40;62.35;;;8.40;99.90;;;;;;5154292;27;20053;-80
2022/01/04 11:16:18;;;;;;;;;;;10.40;99.90;;;;;;5154849;27;20043;-79
2022/01/04 11:18:49;;;;;;;46.13;43.03;;;11.60;99.90;;;;;;5154076;27;20467;-79
2022/01/04 11:21:15;;;;;;;118.78;109.70;;;8.40;99.90;;;;;;5154149;27;20500;-79
2022/01/04 11:23:42;;;;;;;81.15;75.50;;;8.70;99.90;;;;;;5153355;27;20444;-78
2022/01/04 11:26:13;;;;;;;78.10;73.15;;;6.90;99.90;;;;;;5153865;27;20054;-78
2022/01/04 11:28:44;;;;;;;112.38;105.10;;;7.80;99.90;;;;;;5153788;27;20050;-78
2022/01/04 11:31:34;;;;;;;124.25;116.10;;;8.80;99.90;;;;;;5153762;27;20375;-79
2022/01/04 11:34:10;;;;;;;136.85;128.05;;;8.70;99.90;;;;;;5148793;27;20053;-78
2022/01/04 11:36:42;;;;;;;107.47;100.18;;;9.10;99.90;;;;;;5135821;27;20138;-78
2022/01/04 11:39:29;;;;;;;109.15;101.68;;;9.00;99.90;;;;;;5153166;27;20123;-79
2022/01/04 11:41:57;;;;;;;107.03;99.70;;;8.50;99.90;;;;;;5152995;27;20058;-80
2022/01/04 11:44:26;;;;;;;122.15;114.47;;;8.70;99.90;;;;;;5153766;27;20047;-79
2022/01/04 11:47:01;;;;;;;96.97;90.35;;;9.90;99.90;;;;;;5153004;27;20065;-80
2022/01/04 11:49:27;;;;;;;65.88;61.08;;;8.70;99.90;;;;;;5153969;27;20053;-79
2022/01/04 11:51:53;;;;;;;45.70;41.88;;;8.60;99.90;;;;;;5134466;27;20117;-78
2022/01/04 11:54:18;;;;;;;67.47;63.20;;;10.90;99.90;;;;;;5153310;27;20531;-78
2022/01/04 11:56:47;;;;;;;107.97;97.28;;;8.50;99.90;;;;;;5153568;27;20172;-79
2022/01/04 11:59:22;;;;;;;64.43;59.58;;;10.30;99.90;;;;;;5134907;27;20055;-79
2022/01/04 12:01:48;;;;;;;49.53;45.63;;;;;;;;;;5153710;27;20053;-79
2022/01/04 12:04:47;;;;;;;48.75;45.58;;;8.40;99.90;;;;;;5152737;27;20086;-79
2022/01/04 12:07:44;;;;;;;31.55;28.75;;;7.90;99.90;;;;;;5133645;27;20188;-79
2022/01/04 12:10:22;;;;;;;20.05;17.85;;;8.30;99.90;;;;;;5143823;27;20057;-80
2022/01/04 12:13:06;;;;;;;49.88;16.05;;;10.70;99.90;;;;;;5153369;27;20089;-80
2022/01/04 12:15:34;;;;;;;22.67;10.93;;;8.50;99.90;;;;;;5153057;27;20038;-79
2022/01/04 12:18:22;;;;;;;13.88;9.00;;;8.30;99.90;;;;;;5135014;27;20050;-79
2022/01/04 12:20:53;;;;;;;13.80;7.50;;;7.80;99.90;;;;;;5132541;27;20390;-79
2022/01/04 12:23:29;;;;;;;15.60;10.13;;;8.00;99.90;;;;;;5131084;27;20054;-80
2022/01/04 12:28:31;;;;;;;14.45;7.40;;;9.20;99.90;;;;;;5135255;27;20035;-82
2022/01/04 12:31:22;;;;;;;11.75;7.25;;;8.00;99.90;;;;;;5152765;27;20039;-82